createdAt,value
2018-08-16T00:00:04.493Z,6.53
2018-08-16T00:02:32.027Z,6.70
2018-08-16T00:04:59.545Z,6.55
2018-08-16T00:07:27.030Z,6.80
2018-08-16T00:09:54.497Z,6.58
2018-08-16T00:12:22.017Z,6.55
2018-08-16T00:14:49.405Z,6.60
2018-08-16T00:17:16.829Z,6.30
2018-08-16T00:19:44.248Z,6.70
2018-08-16T00:22:11.658Z,6.58
2018-08-16T00:24:39.098Z,7.10
2018-08-16T00:27:06.617Z,6.80
2018-08-16T00:29:34.065Z,6.83
2018-08-16T00:32:01.564Z,6.67
2018-08-16T00:34:28.939Z,6.33
2018-08-16T00:36:56.447Z,7.00
2018-08-16T00:39:23.959Z,6.43
2018-08-16T00:41:51.504Z,6.87
2018-08-16T00:44:18.981Z,6.65
2018-08-16T00:46:46.532Z,6.80
2018-08-16T00:49:13.974Z,6.87
2018-08-16T00:51:41.384Z,6.70
2018-08-16T00:54:08.872Z,6.55
2018-08-16T00:56:36.346Z,6.78
2018-08-16T00:59:03.891Z,6.75
2018-08-16T01:01:31.251Z,6.75
2018-08-16T01:03:58.723Z,6.60
2018-08-16T01:06:26.194Z,6.70
2018-08-16T01:08:53.656Z,6.83
2018-08-16T01:11:21.183Z,7.25
2018-08-16T01:13:48.750Z,7.30
2018-08-16T01:16:16.197Z,7.15
2018-08-16T01:18:43.760Z,7.10
2018-08-16T01:21:11.274Z,6.95
2018-08-16T01:23:38.726Z,7.12
2018-08-16T01:26:06.313Z,6.90
2018-08-16T01:28:33.782Z,7.10
2018-08-16T01:31:01.230Z,6.87
2018-08-16T01:33:28.852Z,6.90
2018-08-16T01:35:56.243Z,6.80
2018-08-16T01:38:23.608Z,7.25
2018-08-16T01:40:51.019Z,7.40
2018-08-16T01:43:18.522Z,6.83
2018-08-16T01:45:45.982Z,7.00
2018-08-16T01:48:13.575Z,6.70
2018-08-16T01:50:41.138Z,6.80
2018-08-16T01:53:08.670Z,6.72
2018-08-16T01:55:36.167Z,6.50
2018-08-16T01:58:03.687Z,6.50
2018-08-16T02:00:31.175Z,6.62
2018-08-16T02:02:58.730Z,7.00
2018-08-16T02:05:26.193Z,6.85
2018-08-16T02:07:53.663Z,7.03
2018-08-16T02:10:21.097Z,6.90
2018-08-16T02:12:48.656Z,6.53
2018-08-16T02:15:16.176Z,6.72
2018-08-16T02:17:43.580Z,6.87
2018-08-16T02:20:12.969Z,7.20
2018-08-16T02:22:40.732Z,7.12
2018-08-16T02:25:08.137Z,7.65
2018-08-16T02:27:35.617Z,7.35
2018-08-16T02:30:03.679Z,7.30
2018-08-16T02:32:31.093Z,7.65
2018-08-16T02:34:58.510Z,7.35
2018-08-16T02:37:26.002Z,7.40
2018-08-16T02:39:53.460Z,7.03
2018-08-16T02:42:20.983Z,6.72
2018-08-16T02:44:48.482Z,7.15
2018-08-16T02:47:15.930Z,7.25
2018-08-16T02:49:43.297Z,7.33
2018-08-16T02:52:10.843Z,7.25
2018-08-16T02:54:38.277Z,7.42
2018-08-16T02:57:05.728Z,7.15
2018-08-16T02:59:33.203Z,7.50
2018-08-16T03:02:00.640Z,7.07
2018-08-16T03:04:28.178Z,7.08
2018-08-16T03:06:55.631Z,7.37
2018-08-16T03:09:23.109Z,6.97
2018-08-16T03:11:50.510Z,7.60
2018-08-16T03:14:17.940Z,7.70
2018-08-16T03:16:45.421Z,7.75
2018-08-16T03:19:12.814Z,7.75
2018-08-16T03:21:40.335Z,7.70
2018-08-16T03:24:08.033Z,7.85
2018-08-16T03:26:35.523Z,7.80
2018-08-16T03:29:03.032Z,7.92
2018-08-16T03:31:30.484Z,7.53
2018-08-16T03:33:57.983Z,8.23
2018-08-16T03:36:25.540Z,7.83
2018-08-16T03:38:52.945Z,8.13
2018-08-16T03:41:20.412Z,8.10
2018-08-16T03:43:47.929Z,8.10
2018-08-16T03:46:15.366Z,8.20
2018-08-16T03:48:42.760Z,8.43
2018-08-16T03:51:10.327Z,8.18
2018-08-16T03:53:37.835Z,8.18
2018-08-16T03:56:05.350Z,8.48
2018-08-16T03:58:32.830Z,8.20
2018-08-16T04:01:00.318Z,8.80
2018-08-16T04:03:27.788Z,8.40
2018-08-16T04:05:55.347Z,8.58
2018-08-16T04:08:22.824Z,8.63
2018-08-16T04:10:50.372Z,8.87
2018-08-16T04:13:17.884Z,8.75
2018-08-16T04:15:45.211Z,9.15
2018-08-16T04:18:12.659Z,9.70
2018-08-16T04:20:40.079Z,8.60
2018-08-16T04:23:07.649Z,9.43
2018-08-16T04:25:35.039Z,8.48
2018-08-16T04:28:02.758Z,9.00
2018-08-16T04:30:30.206Z,9.38
2018-08-16T04:32:57.567Z,9.33
2018-08-16T04:35:25.191Z,9.08
2018-08-16T04:37:52.458Z,9.38
2018-08-16T04:40:19.959Z,9.93
2018-08-16T04:42:47.449Z,10.00
2018-08-16T04:45:14.967Z,10.00
2018-08-16T04:47:42.429Z,9.63
2018-08-16T04:50:11.429Z,9.50
2018-08-16T04:52:38.891Z,9.70
2018-08-16T04:55:07.538Z,9.73
2018-08-16T04:57:35.682Z,9.60
2018-08-16T05:00:03.212Z,9.75
2018-08-16T05:02:30.755Z,9.55
2018-08-16T05:04:58.134Z,9.43
2018-08-16T05:07:25.554Z,9.60
2018-08-16T05:09:52.931Z,9.88
2018-08-16T05:12:20.457Z,10.32
2018-08-16T05:14:47.970Z,9.73
2018-08-16T05:17:15.534Z,10.17
2018-08-16T05:19:43.119Z,9.88
2018-08-16T05:22:10.701Z,9.95
2018-08-16T05:24:38.252Z,10.03
2018-08-16T05:27:05.840Z,9.58
2018-08-16T05:29:33.291Z,10.28
2018-08-16T05:32:00.659Z,10.55
2018-08-16T05:34:28.083Z,10.25
2018-08-16T05:36:55.596Z,10.30
2018-08-16T05:39:23.022Z,10.43
2018-08-16T05:41:50.449Z,9.70
2018-08-16T05:44:17.970Z,9.90
2018-08-16T05:46:45.443Z,10.30
2018-08-16T05:49:12.948Z,9.98
2018-08-16T05:51:40.461Z,10.05
2018-08-16T05:54:07.957Z,10.00
2018-08-16T05:56:35.464Z,10.40
2018-08-16T05:59:03.047Z,10.38
2018-08-16T06:01:30.538Z,10.88
2018-08-16T06:03:58.171Z,11.25
2018-08-16T06:06:25.579Z,10.63
2018-08-16T06:08:53.021Z,10.60
2018-08-16T06:11:20.552Z,10.43
2018-08-16T06:13:48.005Z,10.23
2018-08-16T06:16:15.543Z,10.47
2018-08-16T06:18:42.970Z,10.70
2018-08-16T06:21:10.374Z,9.93
2018-08-16T06:23:37.762Z,9.58
2018-08-16T06:26:05.281Z,9.50
2018-08-16T06:28:32.744Z,9.53
2018-08-16T06:31:00.182Z,9.05
2018-08-16T06:33:27.579Z,9.20
2018-08-16T06:35:54.927Z,8.68
2018-08-16T06:38:22.370Z,8.80
2018-08-16T06:40:49.895Z,8.48
2018-08-16T06:43:17.462Z,8.65
2018-08-16T06:45:45.011Z,7.95
2018-08-16T06:48:12.473Z,7.90
2018-08-16T06:50:39.999Z,7.87
2018-08-16T06:53:07.539Z,8.08
2018-08-16T06:55:35.059Z,7.33
2018-08-16T06:58:02.533Z,9.30
2018-08-16T07:00:30.213Z,7.77
2018-08-16T07:02:57.922Z,8.20
2018-08-16T07:05:25.459Z,7.20
2018-08-16T07:07:52.895Z,7.30
2018-08-16T07:10:20.330Z,7.62
2018-08-16T07:12:47.801Z,7.42
2018-08-16T07:15:15.954Z,7.17
2018-08-16T07:17:44.281Z,6.40
2018-08-16T07:20:11.828Z,6.95
2018-08-16T07:22:39.355Z,6.75
2018-08-16T07:25:07.709Z,6.80
2018-08-16T07:27:35.668Z,6.87
2018-08-16T07:30:04.433Z,7.10
2018-08-16T07:32:31.843Z,6.50
2018-08-16T07:34:59.268Z,6.80
2018-08-16T07:37:27.103Z,7.10
2018-08-16T07:39:54.818Z,6.90
2018-08-16T07:42:22.333Z,6.97
2018-08-16T07:44:49.851Z,7.03
2018-08-16T07:47:17.490Z,7.50
2018-08-16T07:49:45.035Z,7.47
2018-08-16T07:52:12.498Z,7.20
2018-08-16T07:54:39.949Z,8.18
2018-08-16T07:57:07.447Z,8.28
2018-08-16T07:59:35.066Z,8.35
2018-08-16T08:02:03.126Z,8.40
2018-08-16T08:04:30.505Z,8.98
2018-08-16T08:06:58.051Z,9.40
2018-08-16T08:09:25.504Z,10.18
2018-08-16T08:11:53.012Z,10.30
2018-08-16T08:14:20.652Z,10.23
2018-08-16T08:16:48.140Z,10.80
2018-08-16T08:19:15.609Z,12.53
2018-08-16T08:21:43.205Z,18.25
2018-08-16T08:24:10.667Z,13.45
2018-08-16T08:26:38.083Z,10.53
2018-08-16T08:29:05.645Z,10.03
2018-08-16T08:31:33.320Z,10.90
2018-08-16T08:34:00.653Z,10.83
2018-08-16T08:36:39.552Z,10.90
2018-08-16T08:39:08.047Z,11.00
2018-08-16T08:41:35.558Z,10.10
2018-08-16T08:44:14.909Z,10.18
2018-08-16T08:46:42.505Z,12.10
2018-08-16T08:49:10.131Z,8.83
2018-08-16T08:51:37.511Z,8.80
2018-08-16T08:54:20.142Z,9.00
2018-08-16T08:56:59.015Z,8.53
2018-08-16T08:59:26.542Z,9.25
2018-08-16T09:01:53.980Z,9.58
2018-08-16T09:04:21.443Z,9.80
2018-08-16T09:06:48.921Z,8.58
2018-08-16T09:09:16.319Z,15.48
2018-08-16T09:11:55.354Z,9.80
2018-08-16T09:14:34.083Z,8.18
2018-08-16T09:17:01.638Z,7.80
2018-08-16T09:19:29.191Z,7.80
2018-08-16T09:21:56.628Z,7.40
2018-08-16T09:24:25.145Z,8.00
2018-08-16T09:26:52.647Z,8.03
2018-08-16T09:30:29.099Z,7.23
2018-08-16T09:33:07.871Z,7.85
2018-08-16T09:35:35.348Z,7.17
2018-08-16T09:38:02.890Z,6.42
2018-08-16T09:40:30.323Z,6.10
2018-08-16T09:42:58.212Z,6.22
2018-08-16T09:45:41.028Z,5.90
2018-08-16T09:48:19.959Z,6.10
2018-08-16T09:50:47.464Z,6.00
2018-08-16T09:53:14.925Z,5.80
2018-08-16T09:55:42.376Z,5.85
2018-08-16T09:58:09.991Z,5.80
2018-08-16T10:00:43.555Z,5.95
2018-08-16T10:03:26.887Z,5.37
2018-08-16T10:06:07.980Z,5.30
2018-08-16T10:08:36.403Z,5.30
2018-08-16T10:11:04.953Z,5.00
2018-08-16T10:13:32.479Z,4.80
2018-08-16T10:15:59.901Z,5.03
2018-08-16T10:18:27.300Z,5.10
2018-08-16T10:20:54.857Z,4.85
2018-08-16T10:23:22.419Z,4.60
2018-08-16T10:25:49.970Z,4.90
2018-08-16T10:28:17.432Z,4.75
2018-08-16T10:30:53.866Z,4.42
2018-08-16T10:33:25.220Z,4.20
2018-08-16T10:35:53.848Z,4.40
2018-08-16T10:38:23.808Z,4.78
2018-08-16T10:40:54.185Z,4.78
2018-08-16T10:43:26.036Z,4.40
2018-08-16T10:45:54.432Z,4.58
2018-08-16T10:48:23.327Z,4.80
2018-08-16T10:50:50.709Z,4.45
2018-08-16T10:53:19.175Z,4.30
2018-08-16T10:55:47.389Z,4.00
2018-08-16T10:58:17.294Z,4.30
2018-08-16T11:00:45.157Z,3.98
2018-08-16T11:03:13.147Z,4.08
2018-08-16T11:05:41.210Z,3.83
2018-08-16T11:08:09.704Z,3.87
2018-08-16T11:10:37.265Z,4.10
2018-08-16T11:13:04.863Z,3.50
2018-08-16T11:15:32.290Z,3.80
2018-08-16T11:17:59.664Z,3.95
2018-08-16T11:20:27.156Z,3.67
2018-08-16T11:22:57.525Z,3.17
2018-08-16T11:25:34.851Z,2.95
2018-08-16T11:28:08.133Z,3.25
2018-08-16T11:30:43.173Z,3.10
2018-08-16T11:33:11.566Z,3.35
2018-08-16T11:35:39.034Z,3.20
2018-08-16T11:38:06.483Z,3.02
2018-08-16T11:40:33.995Z,3.40
2018-08-16T11:43:01.532Z,3.00
2018-08-16T11:45:28.971Z,6.03
2018-08-16T11:47:56.463Z,3.70
2018-08-16T11:50:23.940Z,3.12
2018-08-16T11:52:51.344Z,3.40
2018-08-16T11:55:18.851Z,3.15
2018-08-16T11:57:48.763Z,3.20
2018-08-16T12:00:16.582Z,3.30
2018-08-16T12:02:44.603Z,3.20
2018-08-16T12:05:13.490Z,3.13
2018-08-16T12:07:40.938Z,3.30
2018-08-16T12:10:08.385Z,3.40
2018-08-16T12:12:36.412Z,3.10
2018-08-16T12:15:05.180Z,3.42
2018-08-16T12:17:32.857Z,3.20
2018-08-16T12:20:00.249Z,3.40
2018-08-16T12:22:28.086Z,3.80
2018-08-16T12:24:55.409Z,3.40
2018-08-16T12:27:23.051Z,3.30
2018-08-16T12:29:50.524Z,3.37
2018-08-16T12:32:17.931Z,3.20
2018-08-16T12:34:46.859Z,3.37
2018-08-16T12:37:14.397Z,3.33
2018-08-16T12:39:42.963Z,3.40
2018-08-16T12:42:10.518Z,3.60
2018-08-16T12:44:42.024Z,3.92
2018-08-16T12:47:20.385Z,3.25
2018-08-16T12:49:49.710Z,3.50
2018-08-16T12:52:17.687Z,3.17
2018-08-16T12:54:45.099Z,3.77
2018-08-16T12:57:15.730Z,3.80
2018-08-16T12:59:43.244Z,3.20
2018-08-16T13:02:11.528Z,3.10
2018-08-16T13:04:39.023Z,3.60
2018-08-16T13:07:06.545Z,3.55
2018-08-16T13:09:34.075Z,3.40
2018-08-16T13:12:08.624Z,3.45
2018-08-16T13:14:36.332Z,3.17
2018-08-16T13:17:03.914Z,4.60
2018-08-16T13:19:31.421Z,4.85
2018-08-16T13:21:58.846Z,3.47
2018-08-16T13:24:26.282Z,3.35
2018-08-16T13:26:53.775Z,3.43
2018-08-16T13:29:21.364Z,3.30
2018-08-16T13:31:48.974Z,3.52
2018-08-16T13:34:16.381Z,3.22
2018-08-16T13:36:43.842Z,3.00
2018-08-16T13:39:13.300Z,3.40
2018-08-16T13:41:40.810Z,3.30
2018-08-16T13:44:08.792Z,3.30
2018-08-16T13:46:36.250Z,3.60
2018-08-16T13:49:03.807Z,3.50
2018-08-16T13:51:31.395Z,3.70
2018-08-16T13:53:58.820Z,3.40
2018-08-16T13:56:26.357Z,3.30
2018-08-16T13:58:53.777Z,3.70
2018-08-16T14:01:21.286Z,3.85
2018-08-16T14:03:48.780Z,3.77
2018-08-16T14:06:16.183Z,3.47
2018-08-16T14:08:43.760Z,3.55
2018-08-16T14:11:11.254Z,3.40
2018-08-16T14:13:38.804Z,3.55
2018-08-16T14:16:07.670Z,3.37
2018-08-16T14:18:35.507Z,3.47
2018-08-16T14:21:03.129Z,3.20
2018-08-16T14:23:30.682Z,3.33
2018-08-16T14:25:59.126Z,3.40
2018-08-16T14:28:26.722Z,3.85
2018-08-16T14:30:54.204Z,3.25
2018-08-16T14:33:21.712Z,3.30
2018-08-16T14:35:49.194Z,3.60
2018-08-16T14:38:16.722Z,3.60
2018-08-16T14:40:44.202Z,4.28
2018-08-16T14:43:11.701Z,3.87
2018-08-16T14:45:39.280Z,3.30
2018-08-16T14:48:08.688Z,3.30
2018-08-16T14:50:36.505Z,3.30
2018-08-16T14:53:04.158Z,3.40
2018-08-16T14:55:31.835Z,3.75
2018-08-16T14:57:59.289Z,3.30
2018-08-16T15:00:26.870Z,3.00
2018-08-16T15:02:54.391Z,3.30
2018-08-16T15:05:21.889Z,3.20
2018-08-16T15:07:49.361Z,3.25
2018-08-16T15:10:16.875Z,3.27
2018-08-16T15:12:44.385Z,3.20
2018-08-16T15:15:11.780Z,3.45
2018-08-16T15:17:39.301Z,3.40
2018-08-16T15:20:07.297Z,3.33
2018-08-16T15:22:34.969Z,3.35
2018-08-16T15:25:02.648Z,3.40
2018-08-16T15:27:30.233Z,3.60
2018-08-16T15:29:57.683Z,3.40
2018-08-16T15:32:25.311Z,3.37
2018-08-16T15:34:52.812Z,3.40
2018-08-16T15:37:20.486Z,3.92
2018-08-16T15:39:47.901Z,4.12
2018-08-16T15:42:15.383Z,4.25
2018-08-16T15:44:42.788Z,4.78
2018-08-16T15:47:10.272Z,3.95
2018-08-16T15:49:38.216Z,4.08
2018-08-16T15:52:05.928Z,3.67
2018-08-16T15:54:33.430Z,3.60
2018-08-16T15:57:00.924Z,4.00
2018-08-16T15:59:28.449Z,4.20
2018-08-16T16:02:05.021Z,3.75
2018-08-16T16:04:32.947Z,4.03
2018-08-16T16:07:00.651Z,3.90
2018-08-16T16:09:28.152Z,3.52
2018-08-16T16:11:55.727Z,3.92
2018-08-16T16:14:23.300Z,4.47
2018-08-16T16:16:50.705Z,3.90
2018-08-16T16:19:18.193Z,3.95
2018-08-16T16:21:45.660Z,3.67
2018-08-16T16:24:13.115Z,4.97
2018-08-16T16:26:40.517Z,3.77
2018-08-16T16:29:08.005Z,3.83
2018-08-16T16:31:35.465Z,3.58
2018-08-16T16:34:02.868Z,3.42
2018-08-16T16:36:30.300Z,4.28
2018-08-16T16:38:57.724Z,3.95
2018-08-16T16:41:25.219Z,4.10
2018-08-16T16:43:52.682Z,3.70
2018-08-16T16:46:23.838Z,5.12
2018-08-16T16:48:51.309Z,3.80
2018-08-16T16:51:18.820Z,3.98
2018-08-16T16:53:46.361Z,3.87
2018-08-16T16:56:13.881Z,4.00
2018-08-16T16:58:41.335Z,4.10
2018-08-16T17:01:08.801Z,5.05
2018-08-16T17:03:41.775Z,4.50
2018-08-16T17:06:10.106Z,6.62
2018-08-16T17:08:37.629Z,5.77
2018-08-16T17:11:05.255Z,5.00
2018-08-16T17:13:32.740Z,3.90
2018-08-16T17:16:01.292Z,3.80
2018-08-16T17:18:28.805Z,4.28
2018-08-16T17:20:57.039Z,4.55
2018-08-16T17:23:24.494Z,4.50
2018-08-16T17:25:51.965Z,4.60
2018-08-16T17:28:19.356Z,5.80
2018-08-16T17:30:46.748Z,5.47
2018-08-16T17:33:16.361Z,4.35
2018-08-16T17:35:43.861Z,5.60
2018-08-16T17:38:11.397Z,4.80
2018-08-16T17:40:38.993Z,15.95
2018-08-16T17:43:06.539Z,8.95
2018-08-16T17:45:34.039Z,5.65
2018-08-16T17:48:01.560Z,10.30
2018-08-16T17:50:29.080Z,6.60
2018-08-16T17:52:56.582Z,4.90
2018-08-16T17:55:24.184Z,6.10
2018-08-16T17:57:59.526Z,4.97
2018-08-16T18:00:35.490Z,5.28
2018-08-16T18:03:03.097Z,5.17
2018-08-16T18:05:30.670Z,5.12
2018-08-16T18:07:58.326Z,5.30
2018-08-16T18:10:25.749Z,6.45
2018-08-16T18:12:53.154Z,6.20
2018-08-16T18:15:20.502Z,5.80
2018-08-16T18:17:48.200Z,8.85
2018-08-16T18:20:15.689Z,7.08
2018-08-16T18:22:43.206Z,6.42
2018-08-16T18:25:10.838Z,6.45
2018-08-16T18:27:38.249Z,5.47
2018-08-16T18:30:07.082Z,4.62
2018-08-16T18:32:34.531Z,4.33
2018-08-16T18:35:02.079Z,4.90
2018-08-16T18:37:29.661Z,5.72
2018-08-16T18:39:57.208Z,6.40
2018-08-16T18:42:24.792Z,5.67
2018-08-16T18:44:52.481Z,5.45
2018-08-16T18:47:20.037Z,5.03
2018-08-16T18:49:47.452Z,5.00
2018-08-16T18:52:14.916Z,8.20
2018-08-16T18:54:42.419Z,6.57
2018-08-16T18:57:09.900Z,7.28
2018-08-16T18:59:37.419Z,6.42
2018-08-16T19:02:04.989Z,7.30
2018-08-16T19:04:32.446Z,7.60
2018-08-16T19:06:59.904Z,8.98
2018-08-16T19:09:27.474Z,7.30
2018-08-16T19:11:54.868Z,7.58
2018-08-16T19:14:22.385Z,7.75
2018-08-16T19:16:49.711Z,7.67
2018-08-16T19:19:17.352Z,7.20
2018-08-16T19:21:44.903Z,7.45
2018-08-16T19:24:12.289Z,7.03
2018-08-16T19:26:39.732Z,7.33
2018-08-16T19:29:07.261Z,6.78
2018-08-16T19:31:34.755Z,6.33
2018-08-16T19:34:02.145Z,5.70
2018-08-16T19:36:29.614Z,6.15
2018-08-16T19:38:57.051Z,6.33
2018-08-16T19:41:24.567Z,5.87
2018-08-16T19:43:51.983Z,5.80
2018-08-16T19:46:19.520Z,5.90
2018-08-16T19:48:46.861Z,6.05
2018-08-16T19:51:14.372Z,5.60
2018-08-16T19:53:41.910Z,5.80
2018-08-16T19:56:09.302Z,5.83
2018-08-16T19:58:36.839Z,5.40
2018-08-16T20:01:05.745Z,5.47
2018-08-16T20:03:33.867Z,5.78
2018-08-16T20:06:01.254Z,6.55
2018-08-16T20:08:28.658Z,6.33
2018-08-16T20:10:56.142Z,6.67
2018-08-16T20:13:23.446Z,5.45
2018-08-16T20:15:51.022Z,6.00
2018-08-16T20:18:18.482Z,5.55
2018-08-16T20:20:46.030Z,5.80
2018-08-16T20:23:14.296Z,6.30
2018-08-16T20:25:41.716Z,5.90
2018-08-16T20:28:24.136Z,6.05
2018-08-16T20:30:52.081Z,6.30
2018-08-16T20:33:19.582Z,5.80
2018-08-16T20:35:47.092Z,6.12
2018-08-16T20:38:14.670Z,5.85
2018-08-16T20:40:42.115Z,6.08
2018-08-16T20:43:09.592Z,5.87
2018-08-16T20:45:37.030Z,6.30
2018-08-16T20:48:05.375Z,5.70
2018-08-16T20:50:32.816Z,5.80
2018-08-16T20:53:00.229Z,6.00
2018-08-16T20:55:27.640Z,6.30
2018-08-16T20:57:55.048Z,6.17
2018-08-16T21:00:22.409Z,6.40
2018-08-16T21:02:49.812Z,5.83
2018-08-16T21:05:17.247Z,6.62
2018-08-16T21:07:44.670Z,6.60
2018-08-16T21:10:12.237Z,7.10
2018-08-16T21:12:39.613Z,7.30
2018-08-16T21:15:07.792Z,7.35
2018-08-16T21:17:35.072Z,6.90
2018-08-16T21:20:02.557Z,6.65
2018-08-16T21:22:30.082Z,6.45
2018-08-16T21:24:57.502Z,5.92
2018-08-16T21:27:25.023Z,6.37
2018-08-16T21:29:52.686Z,6.12
2018-08-16T21:32:23.819Z,6.47
2018-08-16T21:34:51.282Z,6.22
2018-08-16T21:37:18.843Z,6.00
2018-08-16T21:39:46.259Z,5.85
2018-08-16T21:42:13.734Z,6.47
2018-08-16T21:44:41.149Z,6.28
2018-08-16T21:47:08.648Z,6.03
2018-08-16T21:49:36.132Z,6.00
2018-08-16T21:52:03.542Z,5.90
2018-08-16T21:54:30.919Z,6.40
2018-08-16T21:56:58.460Z,6.47
2018-08-16T21:59:25.902Z,6.70
2018-08-16T22:01:53.316Z,6.47
2018-08-16T22:04:20.723Z,6.10
2018-08-16T22:07:01.570Z,7.05
2018-08-16T22:09:29.041Z,7.20
2018-08-16T22:11:56.546Z,6.95
2018-08-16T22:14:24.007Z,7.15
2018-08-16T22:16:51.559Z,7.55
2018-08-16T22:19:19.089Z,7.92
2018-08-16T22:21:46.579Z,7.85
2018-08-16T22:24:14.063Z,7.62
2018-08-16T22:26:41.882Z,8.00
2018-08-16T22:29:09.258Z,7.72
2018-08-16T22:31:36.750Z,7.85
2018-08-16T22:34:04.353Z,7.65
2018-08-16T22:36:31.704Z,7.30
2018-08-16T22:38:59.163Z,7.50
2018-08-16T22:41:26.641Z,7.60
2018-08-16T22:43:53.974Z,7.75
2018-08-16T22:46:21.411Z,7.42
2018-08-16T22:48:48.807Z,7.70
2018-08-16T22:51:16.302Z,7.55
2018-08-16T22:53:43.793Z,7.20
2018-08-16T22:56:11.185Z,7.00
2018-08-16T22:58:38.644Z,7.20
2018-08-16T23:01:06.292Z,7.30
2018-08-16T23:03:33.695Z,7.40
2018-08-16T23:06:01.155Z,8.03
2018-08-16T23:08:28.632Z,9.10
2018-08-16T23:10:56.101Z,9.60
2018-08-16T23:13:23.622Z,9.28
2018-08-16T23:15:51.242Z,8.60
2018-08-16T23:18:18.731Z,7.85
2018-08-16T23:20:46.221Z,7.80
2018-08-16T23:23:13.702Z,7.73
2018-08-16T23:25:41.072Z,7.67
2018-08-16T23:28:08.426Z,7.70
2018-08-16T23:30:35.886Z,7.90
2018-08-16T23:33:03.354Z,7.30
2018-08-16T23:35:30.879Z,7.50
2018-08-16T23:37:58.394Z,7.40
2018-08-16T23:40:25.807Z,7.60
2018-08-16T23:42:53.541Z,7.92
2018-08-16T23:45:21.108Z,8.13
2018-08-16T23:48:00.042Z,7.58
2018-08-16T23:50:27.544Z,7.45
2018-08-16T23:52:54.963Z,7.60
2018-08-16T23:55:22.429Z,7.87
2018-08-16T23:57:49.867Z,7.55
